Bruk link Alternativ webside om du vil se statistikk,rapport,grafer og analyse og mye mer.

Lynradar: storm image Ingen tordenbyger registrert..



Vårt webkamera mer informasjon My webcam


Kamera på Foreneset mer informasjon webcam on foreneset


Nedbørsradar  rain snow radar


Besøk vår andre værside:

Alternativ webside

iphone versjon

Nettbrett versjon

Foreneset
verstasjon



Ikke nødvendig med spesiell oppmerksomhet.    Det er ingen advarsler

Nære METAR rapporter

     
ENZV - Stavanger
oppdatert: 09-04-2020 21:20
Få Skyer  
Få Skyer  
   Vind: NNV 5.7 m/s
Vind: NNV 5.7 m/s
Temperatur: 4°C
Wind Chill: 0°C
Duggpunkt: -3°C
Fuktighet: 61%
Barometer: 1028 hPa
Skyer: Få Skyer
Sikt: mer enn 10 km
Skydetaljer: Få Skyer 1371.6 m
ENZV 091920Z 33011KT 9999 FEW045 04/M03 Q1028
ENHD - Haugesund
oppdatert: 09-04-2020 21:20
Klart  
Klart  
   Vind: NNV 6.2 m/s
Vind: NNV 6.2 m/s
Temperatur: 5°C
Wind Chill: 1°C
Duggpunkt: -3°C
Fuktighet: 57%
Barometer: 1029 hPa
Skyer: Klart
Sikt: mer enn 10 km
Skydetaljer: Klart
ENHD 091920Z AUTO 33012KT 9999 NCD 05/M03 Q1029
ENBR - Bergen
oppdatert: 09-04-2020 21:20
For det meste skyet  
For det meste skyet  
   Vind: NNV 4.6 m/s
Vind: NNV 4.6 m/s
Temperatur: 4°C
Wind Chill: 0°C
Duggpunkt: -1°C
Fuktighet: 70%
Barometer: 1029 hPa
Skyer: For det meste skyet
Sikt: mer enn 10 km
Skydetaljer: Få Skyer 914.4 m,
For det meste skyet 1432.6 m
ENBR 091920Z 33009KT 9999 FEW030 BKN047 04/M01 Q1029 RMK WIND 1200FT 32014KT
ENCN - Kristiansand
oppdatert: 09-04-2020 21:20
Klart  
Klart  
   Vind: NV 3.1 m/s
Vind: NV 3.1 m/s
Temperatur: 6°C
Wind Chill: 4°C
Duggpunkt: -6°C
Fuktighet: 42%
Barometer: 1025 hPa
Skyer: Klart
Sikt: mer enn 10 km
Skydetaljer: Klart
ENCN 091920Z AUTO 32006KT 280V350 9999 NCD 06/M06 Q1025
ENGM - Oslo
oppdatert: 09-04-2020 21:20
Klart  
Klart  
   Vind: Nord 1.5 m/s
Vind: Nord 1.5 m/s
Temperatur: 4°C
Wind Chill: 3°C
Duggpunkt: -9°C
Fuktighet: 39%
Barometer: 1023 hPa
Sikt: mer enn 10 km
Skydetaljer: Klart
ENGM 091920Z 36003KT 330V030 CAVOK 04/M09 Q1023 NOSIG
ENVA - Trondheim
oppdatert: 09-04-2020 21:20
For det meste skyet  
For det meste skyet  
   Vind: NV 5.1 m/s
Vind: NV 5.1 m/s
Temperatur: 2°C
Wind Chill: -2°C
Duggpunkt: 1°C
Fuktighet: 93%
Barometer: 1022 hPa
Skyer: For det meste skyet
Sikt: mer enn 10 km
Skydetaljer: Få Skyer 182.9 m,
Delvis Skyet 396.2 m,
For det meste skyet 579.1 m
ENVA 091920Z 31010KT 9999 FEW006 SCT013 BKN019 02/01 Q1022 RMK WIND 670FT 27015KT
    

Script utviklet av  Saratoga-weather.org Tilrettelagt for malen av  Weerstation Leuven

Du finner vår vær info også på:

UK Metoffice

European Weather Network

WeatherCloud

Weather Underground

Utstyr vi bruker:

Værstsjon
Davis VP2

Værprogram
Weather Display

Davis VP2

Weather Display